sensor_id;sensor_type;location;lat;lon;timestamp;P1;durP1;ratioP1;P2;durP2;ratioP2
25045;SDS011;13044;49.304;12.840;2023-02-01T00:00:56;9.48;;;5.50;;
25045;SDS011;13044;49.304;12.840;2023-02-01T00:03:23;8.45;;;5.40;;
25045;SDS011;13044;49.304;12.840;2023-02-01T00:05:57;9.73;;;5.80;;
25045;SDS011;13044;49.304;12.840;2023-02-01T00:08:24;7.53;;;5.25;;
25045;SDS011;13044;49.304;12.840;2023-02-01T00:11:02;9.25;;;5.35;;
25045;SDS011;13044;49.304;12.840;2023-02-01T00:13:33;10.82;;;5.97;;
25045;SDS011;13044;49.304;12.840;2023-02-01T00:18:36;9.80;;;5.75;;
25045;SDS011;13044;49.304;12.840;2023-02-01T00:21:03;9.05;;;5.30;;
25045;SDS011;13044;49.304;12.840;2023-02-01T00:23:34;5.93;;;4.90;;
25045;SDS011;13044;49.304;12.840;2023-02-01T00:26:05;7.05;;;4.78;;
25045;SDS011;13044;49.304;12.840;2023-02-01T00:28:35;8.80;;;4.90;;
25045;SDS011;13044;49.304;12.840;2023-02-01T00:31:03;7.80;;;5.18;;
25045;SDS011;13044;49.304;12.840;2023-02-01T00:33:32;9.00;;;5.10;;
25045;SDS011;13044;49.304;12.840;2023-02-01T00:36:00;7.32;;;4.97;;
25045;SDS011;13044;49.304;12.840;2023-02-01T00:38:29;8.40;;;5.57;;
25045;SDS011;13044;49.304;12.840;2023-02-01T00:41:04;8.73;;;5.70;;
25045;SDS011;13044;49.304;12.840;2023-02-01T00:43:33;9.90;;;5.43;;
25045;SDS011;13044;49.304;12.840;2023-02-01T00:46:00;10.00;;;6.25;;
25045;SDS011;13044;49.304;12.840;2023-02-01T00:48:28;10.20;;;5.85;;
25045;SDS011;13044;49.304;12.840;2023-02-01T00:51:02;9.43;;;5.30;;
25045;SDS011;13044;49.304;12.840;2023-02-01T00:53:38;8.02;;;6.22;;
25045;SDS011;13044;49.304;12.840;2023-02-01T00:56:06;8.80;;;6.13;;
25045;SDS011;13044;49.304;12.840;2023-02-01T00:58:33;9.32;;;5.57;;
25045;SDS011;13044;49.304;12.840;2023-02-01T01:01:05;10.60;;;6.05;;
25045;SDS011;13044;49.304;12.840;2023-02-01T01:06:19;9.50;;;5.60;;
25045;SDS011;13044;49.304;12.840;2023-02-01T01:08:50;8.98;;;5.60;;
25045;SDS011;13044;49.304;12.840;2023-02-01T01:11:20;8.07;;;6.30;;
25045;SDS011;13044;49.304;12.840;2023-02-01T01:13:51;8.90;;;5.78;;
25045;SDS011;13044;49.304;12.840;2023-02-01T01:16:20;7.80;;;6.00;;
25045;SDS011;13044;49.304;12.840;2023-02-01T01:18:49;12.48;;;6.07;;
25045;SDS011;13044;49.304;12.840;2023-02-01T01:21:17;7.68;;;5.80;;
25045;SDS011;13044;49.304;12.840;2023-02-01T01:23:45;8.05;;;5.95;;
25045;SDS011;13044;49.304;12.840;2023-02-01T01:26:14;8.45;;;5.22;;
25045;SDS011;13044;49.304;12.840;2023-02-01T01:28:44;7.78;;;5.47;;
25045;SDS011;13044;49.304;12.840;2023-02-01T01:31:11;9.43;;;5.97;;
25045;SDS011;13044;49.304;12.840;2023-02-01T01:33:41;8.07;;;5.53;;
25045;SDS011;13044;49.304;12.840;2023-02-01T01:36:10;8.95;;;5.75;;
25045;SDS011;13044;49.304;12.840;2023-02-01T01:38:41;8.48;;;5.88;;
25045;SDS011;13044;49.304;12.840;2023-02-01T01:41:09;10.45;;;6.03;;
25045;SDS011;13044;49.304;12.840;2023-02-01T01:46:20;8.13;;;5.00;;
25045;SDS011;13044;49.304;12.840;2023-02-01T01:48:57;7.53;;;5.30;;
25045;SDS011;13044;49.304;12.840;2023-02-01T01:51:36;6.88;;;5.22;;
25045;SDS011;13044;49.304;12.840;2023-02-01T01:54:29;6.22;;;4.80;;
25045;SDS011;13044;49.304;12.840;2023-02-01T01:57:11;5.80;;;4.40;;
25045;SDS011;13044;49.304;12.840;2023-02-01T02:00:16;8.00;;;5.22;;
25045;SDS011;13044;49.304;12.840;2023-02-01T02:02:45;6.88;;;5.00;;
25045;SDS011;13044;49.304;12.840;2023-02-01T02:05:19;5.80;;;4.68;;
25045;SDS011;13044;49.304;12.840;2023-02-01T02:07:47;5.93;;;4.03;;
25045;SDS011;13044;49.304;12.840;2023-02-01T02:10:17;7.35;;;4.50;;
25045;SDS011;13044;49.304;12.840;2023-02-01T02:12:45;8.10;;;4.93;;
25045;SDS011;13044;49.304;12.840;2023-02-01T02:15:14;6.35;;;4.53;;
25045;SDS011;13044;49.304;12.840;2023-02-01T02:17:58;8.55;;;4.10;;
25045;SDS011;13044;49.304;12.840;2023-02-01T02:23:29;5.95;;;4.25;;
25045;SDS011;13044;49.304;12.840;2023-02-01T02:26:39;5.95;;;4.47;;
25045;SDS011;13044;49.304;12.840;2023-02-01T02:29:37;5.88;;;4.70;;
25045;SDS011;13044;49.304;12.840;2023-02-01T02:38:30;9.25;;;5.45;;
25045;SDS011;13044;49.304;12.840;2023-02-01T02:45:26;9.15;;;5.32;;
25045;SDS011;13044;49.304;12.840;2023-02-01T02:48:17;8.18;;;5.97;;
25045;SDS011;13044;49.304;12.840;2023-02-01T02:54:23;9.98;;;6.50;;
25045;SDS011;13044;49.304;12.840;2023-02-01T03:00:22;10.15;;;6.82;;
25045;SDS011;13044;49.304;12.840;2023-02-01T03:03:13;9.23;;;6.88;;
25045;SDS011;13044;49.304;12.840;2023-02-01T03:05:59;12.13;;;7.53;;
25045;SDS011;13044;49.304;12.840;2023-02-01T03:08:27;11.27;;;7.68;;
25045;SDS011;13044;49.304;12.840;2023-02-01T03:10:58;9.35;;;7.10;;
25045;SDS011;13044;49.304;12.840;2023-02-01T03:13:40;10.38;;;7.28;;
25045;SDS011;13044;49.304;12.840;2023-02-01T03:16:26;10.82;;;6.93;;
25045;SDS011;13044;49.304;12.840;2023-02-01T03:22:08;10.27;;;6.38;;
25045;SDS011;13044;49.304;12.840;2023-02-01T03:24:42;8.93;;;6.38;;
25045;SDS011;13044;49.304;12.840;2023-02-01T03:27:15;7.47;;;5.72;;
25045;SDS011;13044;49.304;12.840;2023-02-01T03:32:49;8.90;;;6.07;;
25045;SDS011;13044;49.304;12.840;2023-02-01T03:35:32;7.13;;;5.72;;
25045;SDS011;13044;49.304;12.840;2023-02-01T03:41:09;9.60;;;6.30;;
25045;SDS011;13044;49.304;12.840;2023-02-01T03:44:22;7.15;;;5.53;;
25045;SDS011;13044;49.304;12.840;2023-02-01T03:47:13;10.10;;;6.43;;
25045;SDS011;13044;49.304;12.840;2023-02-01T03:49:55;6.80;;;5.57;;
25045;SDS011;13044;49.304;12.840;2023-02-01T03:52:30;8.15;;;5.72;;
25045;SDS011;13044;49.304;12.840;2023-02-01T03:55:16;8.85;;;5.53;;
25045;SDS011;13044;49.304;12.840;2023-02-01T03:57:50;7.28;;;5.47;;
25045;SDS011;13044;49.304;12.840;2023-02-01T04:00:24;9.02;;;5.35;;
25045;SDS011;13044;49.304;12.840;2023-02-01T04:02:52;9.25;;;5.85;;
25045;SDS011;13044;49.304;12.840;2023-02-01T04:05:19;9.95;;;6.38;;
25045;SDS011;13044;49.304;12.840;2023-02-01T04:07:47;7.80;;;5.30;;
25045;SDS011;13044;49.304;12.840;2023-02-01T04:10:14;9.05;;;6.03;;
25045;SDS011;13044;49.304;12.840;2023-02-01T04:12:44;12.15;;;5.72;;
25045;SDS011;13044;49.304;12.840;2023-02-01T04:15:11;10.45;;;5.60;;
25045;SDS011;13044;49.304;12.840;2023-02-01T04:17:38;8.82;;;6.15;;
25045;SDS011;13044;49.304;12.840;2023-02-01T04:20:05;9.52;;;5.35;;
25045;SDS011;13044;49.304;12.840;2023-02-01T04:22:33;8.07;;;5.32;;
25045;SDS011;13044;49.304;12.840;2023-02-01T04:25:00;10.13;;;5.15;;
25045;SDS011;13044;49.304;12.840;2023-02-01T04:27:27;8.10;;;5.30;;
25045;SDS011;13044;49.304;12.840;2023-02-01T04:29:54;9.57;;;5.70;;
25045;SDS011;13044;49.304;12.840;2023-02-01T04:32:23;7.10;;;5.15;;
25045;SDS011;13044;49.304;12.840;2023-02-01T04:34:50;8.85;;;5.22;;
25045;SDS011;13044;49.304;12.840;2023-02-01T04:37:17;11.45;;;5.63;;
25045;SDS011;13044;49.304;12.840;2023-02-01T04:39:44;8.43;;;5.38;;
25045;SDS011;13044;49.304;12.840;2023-02-01T04:42:11;11.18;;;5.80;;
25045;SDS011;13044;49.304;12.840;2023-02-01T04:44:38;10.43;;;5.40;;
25045;SDS011;13044;49.304;12.840;2023-02-01T04:47:07;7.47;;;5.07;;
25045;SDS011;13044;49.304;12.840;2023-02-01T04:49:35;8.20;;;5.40;;
25045;SDS011;13044;49.304;12.840;2023-02-01T04:52:02;7.82;;;6.05;;
25045;SDS011;13044;49.304;12.840;2023-02-01T04:54:29;8.27;;;5.28;;
25045;SDS011;13044;49.304;12.840;2023-02-01T04:56:56;9.95;;;4.85;;
25045;SDS011;13044;49.304;12.840;2023-02-01T04:59:23;9.20;;;4.72;;
25045;SDS011;13044;49.304;12.840;2023-02-01T05:01:50;7.43;;;4.10;;
25045;SDS011;13044;49.304;12.840;2023-02-01T05:04:17;6.30;;;4.47;;
25045;SDS011;13044;49.304;12.840;2023-02-01T05:06:44;6.28;;;4.20;;
25045;SDS011;13044;49.304;12.840;2023-02-01T05:09:12;5.82;;;4.10;;
25045;SDS011;13044;49.304;12.840;2023-02-01T05:11:38;5.82;;;3.95;;
25045;SDS011;13044;49.304;12.840;2023-02-01T05:14:24;5.28;;;4.28;;
25045;SDS011;13044;49.304;12.840;2023-02-01T05:16:51;4.45;;;3.60;;
25045;SDS011;13044;49.304;12.840;2023-02-01T05:19:18;4.90;;;3.80;;
25045;SDS011;13044;49.304;12.840;2023-02-01T05:21:45;4.93;;;3.50;;
25045;SDS011;13044;49.304;12.840;2023-02-01T05:24:12;5.15;;;3.55;;
25045;SDS011;13044;49.304;12.840;2023-02-01T05:26:40;7.38;;;3.60;;
25045;SDS011;13044;49.304;12.840;2023-02-01T05:29:08;4.70;;;3.60;;
25045;SDS011;13044;49.304;12.840;2023-02-01T05:31:36;5.78;;;4.18;;
25045;SDS011;13044;49.304;12.840;2023-02-01T05:34:03;5.57;;;4.00;;
25045;SDS011;13044;49.304;12.840;2023-02-01T05:36:31;5.93;;;4.50;;
25045;SDS011;13044;49.304;12.840;2023-02-01T05:38:58;5.57;;;4.25;;
25045;SDS011;13044;49.304;12.840;2023-02-01T05:41:25;6.88;;;5.05;;
25045;SDS011;13044;49.304;12.840;2023-02-01T05:43:51;13.18;;;4.50;;
25045;SDS011;13044;49.304;12.840;2023-02-01T05:46:18;8.68;;;5.03;;
25045;SDS011;13044;49.304;12.840;2023-02-01T05:48:45;6.50;;;4.97;;
25045;SDS011;13044;49.304;12.840;2023-02-01T05:51:12;8.57;;;5.13;;
25045;SDS011;13044;49.304;12.840;2023-02-01T05:53:39;6.72;;;4.72;;
25045;SDS011;13044;49.304;12.840;2023-02-01T05:56:06;7.10;;;4.85;;
25045;SDS011;13044;49.304;12.840;2023-02-01T05:58:33;8.48;;;5.65;;
25045;SDS011;13044;49.304;12.840;2023-02-01T06:01:01;8.85;;;5.43;;
25045;SDS011;13044;49.304;12.840;2023-02-01T06:03:29;7.40;;;5.15;;
25045;SDS011;13044;49.304;12.840;2023-02-01T06:05:56;11.43;;;5.97;;
25045;SDS011;13044;49.304;12.840;2023-02-01T06:08:23;7.28;;;5.25;;
25045;SDS011;13044;49.304;12.840;2023-02-01T06:10:57;8.15;;;5.50;;
25045;SDS011;13044;49.304;12.840;2023-02-01T06:13:28;9.23;;;5.22;;
25045;SDS011;13044;49.304;12.840;2023-02-01T06:15:58;7.00;;;5.55;;
25045;SDS011;13044;49.304;12.840;2023-02-01T06:18:25;9.18;;;5.30;;
25045;SDS011;13044;49.304;12.840;2023-02-01T06:20:53;10.15;;;6.05;;
25045;SDS011;13044;49.304;12.840;2023-02-01T06:23:21;10.25;;;5.55;;
25045;SDS011;13044;49.304;12.840;2023-02-01T06:25:50;8.23;;;5.97;;
25045;SDS011;13044;49.304;12.840;2023-02-01T06:28:18;12.60;;;5.90;;
25045;SDS011;13044;49.304;12.840;2023-02-01T06:30:45;10.77;;;6.10;;
25045;SDS011;13044;49.304;12.840;2023-02-01T06:33:13;11.43;;;6.32;;
25045;SDS011;13044;49.304;12.840;2023-02-01T06:35:41;10.68;;;6.38;;
25045;SDS011;13044;49.304;12.840;2023-02-01T06:38:10;8.35;;;6.05;;
25045;SDS011;13044;49.304;12.840;2023-02-01T06:40:38;9.88;;;6.15;;
25045;SDS011;13044;49.304;12.840;2023-02-01T06:43:07;10.27;;;5.75;;
25045;SDS011;13044;49.304;12.840;2023-02-01T06:45:33;7.55;;;5.70;;
25045;SDS011;13044;49.304;12.840;2023-02-01T06:48:00;8.80;;;5.57;;
25045;SDS011;13044;49.304;12.840;2023-02-01T06:50:27;7.65;;;4.97;;
25045;SDS011;13044;49.304;12.840;2023-02-01T06:52:55;7.95;;;5.60;;
25045;SDS011;13044;49.304;12.840;2023-02-01T06:55:21;6.38;;;4.70;;
25045;SDS011;13044;49.304;12.840;2023-02-01T06:57:52;5.80;;;4.57;;
25045;SDS011;13044;49.304;12.840;2023-02-01T07:00:21;7.27;;;4.90;;
25045;SDS011;13044;49.304;12.840;2023-02-01T07:02:49;8.43;;;5.40;;
25045;SDS011;13044;49.304;12.840;2023-02-01T07:05:17;6.88;;;5.15;;
25045;SDS011;13044;49.304;12.840;2023-02-01T07:07:43;7.30;;;5.30;;
25045;SDS011;13044;49.304;12.840;2023-02-01T07:10:10;7.57;;;5.32;;
25045;SDS011;13044;49.304;12.840;2023-02-01T07:12:38;7.47;;;5.30;;
25045;SDS011;13044;49.304;12.840;2023-02-01T07:15:05;6.75;;;5.30;;
25045;SDS011;13044;49.304;12.840;2023-02-01T07:17:32;6.20;;;4.57;;
25045;SDS011;13044;49.304;12.840;2023-02-01T07:19:59;7.10;;;4.22;;
25045;SDS011;13044;49.304;12.840;2023-02-01T07:22:27;6.47;;;4.70;;
25045;SDS011;13044;49.304;12.840;2023-02-01T07:24:55;10.02;;;4.90;;
25045;SDS011;13044;49.304;12.840;2023-02-01T07:27:22;7.32;;;4.35;;
25045;SDS011;13044;49.304;12.840;2023-02-01T07:29:51;5.55;;;3.92;;
25045;SDS011;13044;49.304;12.840;2023-02-01T07:32:18;6.18;;;4.43;;
25045;SDS011;13044;49.304;12.840;2023-02-01T07:34:45;8.38;;;4.03;;
25045;SDS011;13044;49.304;12.840;2023-02-01T07:37:12;7.00;;;3.83;;
25045;SDS011;13044;49.304;12.840;2023-02-01T07:39:39;5.75;;;4.30;;
25045;SDS011;13044;49.304;12.840;2023-02-01T07:42:05;6.38;;;3.80;;
25045;SDS011;13044;49.304;12.840;2023-02-01T07:44:33;6.18;;;3.67;;
25045;SDS011;13044;49.304;12.840;2023-02-01T07:47:00;7.07;;;3.88;;
25045;SDS011;13044;49.304;12.840;2023-02-01T07:49:27;9.77;;;4.15;;
25045;SDS011;13044;49.304;12.840;2023-02-01T07:51:54;9.57;;;4.10;;
25045;SDS011;13044;49.304;12.840;2023-02-01T07:54:21;6.00;;;3.83;;
25045;SDS011;13044;49.304;12.840;2023-02-01T07:56:48;7.47;;;3.70;;
25045;SDS011;13044;49.304;12.840;2023-02-01T07:59:14;10.40;;;3.95;;
25045;SDS011;13044;49.304;12.840;2023-02-01T08:01:42;10.30;;;4.75;;
25045;SDS011;13044;49.304;12.840;2023-02-01T08:04:12;6.22;;;3.30;;
25045;SDS011;13044;49.304;12.840;2023-02-01T08:06:39;7.30;;;3.08;;
25045;SDS011;13044;49.304;12.840;2023-02-01T08:09:07;7.75;;;3.40;;
25045;SDS011;13044;49.304;12.840;2023-02-01T08:11:36;8.27;;;3.22;;
25045;SDS011;13044;49.304;12.840;2023-02-01T08:14:04;12.48;;;3.60;;
25045;SDS011;13044;49.304;12.840;2023-02-01T08:16:32;10.18;;;3.55;;
25045;SDS011;13044;49.304;12.840;2023-02-01T08:19:02;8.82;;;3.03;;
25045;SDS011;13044;49.304;12.840;2023-02-01T08:21:29;8.95;;;3.17;;
25045;SDS011;13044;49.304;12.840;2023-02-01T08:24:06;9.70;;;3.00;;
25045;SDS011;13044;49.304;12.840;2023-02-01T08:26:35;8.32;;;3.15;;
25045;SDS011;13044;49.304;12.840;2023-02-01T08:29:03;8.57;;;3.58;;
25045;SDS011;13044;49.304;12.840;2023-02-01T08:31:31;8.55;;;3.78;;
25045;SDS011;13044;49.304;12.840;2023-02-01T08:34:00;7.60;;;3.10;;
25045;SDS011;13044;49.304;12.840;2023-02-01T08:36:30;7.45;;;3.38;;
25045;SDS011;13044;49.304;12.840;2023-02-01T08:38:57;7.03;;;2.25;;
25045;SDS011;13044;49.304;12.840;2023-02-01T08:41:25;8.27;;;2.80;;
25045;SDS011;13044;49.304;12.840;2023-02-01T08:43:55;4.05;;;2.47;;
25045;SDS011;13044;49.304;12.840;2023-02-01T08:46:23;5.22;;;1.80;;
25045;SDS011;13044;49.304;12.840;2023-02-01T08:48:50;3.08;;;1.92;;
25045;SDS011;13044;49.304;12.840;2023-02-01T08:51:18;3.80;;;2.00;;
25045;SDS011;13044;49.304;12.840;2023-02-01T08:53:47;3.33;;;2.00;;
25045;SDS011;13044;49.304;12.840;2023-02-01T08:56:15;5.43;;;1.92;;
25045;SDS011;13044;49.304;12.840;2023-02-01T08:58:44;5.00;;;1.90;;
25045;SDS011;13044;49.304;12.840;2023-02-01T09:01:13;3.83;;;1.92;;
25045;SDS011;13044;49.304;12.840;2023-02-01T09:03:42;3.17;;;1.67;;
25045;SDS011;13044;49.304;12.840;2023-02-01T09:06:11;2.80;;;1.67;;
25045;SDS011;13044;49.304;12.840;2023-02-01T09:08:40;4.55;;;1.90;;
25045;SDS011;13044;49.304;12.840;2023-02-01T09:11:10;6.65;;;2.72;;
25045;SDS011;13044;49.304;12.840;2023-02-01T09:13:40;6.00;;;2.72;;
25045;SDS011;13044;49.304;12.840;2023-02-01T09:16:08;6.65;;;2.88;;
25045;SDS011;13044;49.304;12.840;2023-02-01T09:18:35;4.03;;;2.40;;
25045;SDS011;13044;49.304;12.840;2023-02-01T09:21:15;7.22;;;2.58;;
25045;SDS011;13044;49.304;12.840;2023-02-01T09:23:43;6.25;;;2.88;;
25045;SDS011;13044;49.304;12.840;2023-02-01T09:26:10;9.57;;;3.65;;
25045;SDS011;13044;49.304;12.840;2023-02-01T09:28:40;6.43;;;3.03;;
25045;SDS011;13044;49.304;12.840;2023-02-01T09:31:07;5.70;;;2.45;;
25045;SDS011;13044;49.304;12.840;2023-02-01T09:33:34;6.93;;;3.45;;
25045;SDS011;13044;49.304;12.840;2023-02-01T09:36:03;6.68;;;2.83;;
25045;SDS011;13044;49.304;12.840;2023-02-01T09:38:31;6.93;;;2.83;;
25045;SDS011;13044;49.304;12.840;2023-02-01T09:41:10;9.48;;;3.33;;
25045;SDS011;13044;49.304;12.840;2023-02-01T09:47:14;4.87;;;2.90;;
25045;SDS011;13044;49.304;12.840;2023-02-01T09:50:05;8.63;;;3.25;;
25045;SDS011;13044;49.304;12.840;2023-02-01T09:52:42;7.15;;;3.50;;
25045;SDS011;13044;49.304;12.840;2023-02-01T09:55:16;6.18;;;3.25;;
25045;SDS011;13044;49.304;12.840;2023-02-01T10:01:21;9.48;;;3.20;;
25045;SDS011;13044;49.304;12.840;2023-02-01T10:03:59;6.90;;;3.50;;
25045;SDS011;13044;49.304;12.840;2023-02-01T10:06:53;5.60;;;3.20;;
25045;SDS011;13044;49.304;12.840;2023-02-01T10:10:09;9.93;;;4.10;;
25045;SDS011;13044;49.304;12.840;2023-02-01T10:13:19;7.10;;;3.25;;
25045;SDS011;13044;49.304;12.840;2023-02-01T10:16:26;6.88;;;3.10;;
25045;SDS011;13044;49.304;12.840;2023-02-01T10:19:22;6.85;;;3.60;;
25045;SDS011;13044;49.304;12.840;2023-02-01T10:22:08;10.50;;;3.30;;
25045;SDS011;13044;49.304;12.840;2023-02-01T10:25:04;9.43;;;3.67;;
25045;SDS011;13044;49.304;12.840;2023-02-01T10:27:48;8.40;;;3.30;;
25045;SDS011;13044;49.304;12.840;2023-02-01T10:30:25;10.93;;;3.70;;
25045;SDS011;13044;49.304;12.840;2023-02-01T10:35:47;8.45;;;3.20;;
25045;SDS011;13044;49.304;12.840;2023-02-01T10:38:28;10.77;;;3.83;;
25045;SDS011;13044;49.304;12.840;2023-02-01T10:41:01;11.27;;;4.20;;
25045;SDS011;13044;49.304;12.840;2023-02-01T10:43:41;11.27;;;3.53;;
25045;SDS011;13044;49.304;12.840;2023-02-01T10:46:09;13.80;;;4.38;;
25045;SDS011;13044;49.304;12.840;2023-02-01T10:48:37;11.60;;;4.00;;
25045;SDS011;13044;49.304;12.840;2023-02-01T10:51:09;14.52;;;6.93;;
25045;SDS011;13044;49.304;12.840;2023-02-01T10:53:53;12.60;;;3.92;;
25045;SDS011;13044;49.304;12.840;2023-02-01T10:56:34;8.95;;;4.05;;
25045;SDS011;13044;49.304;12.840;2023-02-01T10:59:05;12.15;;;3.30;;
25045;SDS011;13044;49.304;12.840;2023-02-01T11:01:46;10.32;;;3.10;;
25045;SDS011;13044;49.304;12.840;2023-02-01T11:04:17;12.50;;;3.97;;
25045;SDS011;13044;49.304;12.840;2023-02-01T11:06:49;8.98;;;2.90;;
25045;SDS011;13044;49.304;12.840;2023-02-01T11:09:22;8.43;;;2.45;;
25045;SDS011;13044;49.304;12.840;2023-02-01T11:19:23;8.18;;;2.80;;
25045;SDS011;13044;49.304;12.840;2023-02-01T11:21:51;9.95;;;2.97;;
25045;SDS011;13044;49.304;12.840;2023-02-01T11:24:25;9.98;;;3.40;;
25045;SDS011;13044;49.304;12.840;2023-02-01T11:27:00;7.18;;;2.83;;
25045;SDS011;13044;49.304;12.840;2023-02-01T11:29:43;12.02;;;3.10;;
25045;SDS011;13044;49.304;12.840;2023-02-01T11:32:19;11.30;;;3.20;;
25045;SDS011;13044;49.304;12.840;2023-02-01T11:34:50;6.03;;;3.00;;
25045;SDS011;13044;49.304;12.840;2023-02-01T11:37:38;24.17;;;10.93;;
25045;SDS011;13044;49.304;12.840;2023-02-01T11:42:58;9.27;;;3.10;;
25045;SDS011;13044;49.304;12.840;2023-02-01T11:45:53;5.70;;;2.70;;
25045;SDS011;13044;49.304;12.840;2023-02-01T11:48:31;8.57;;;2.70;;
25045;SDS011;13044;49.304;12.840;2023-02-01T11:56:46;11.43;;;2.60;;
25045;SDS011;13044;49.304;12.840;2023-02-01T12:05:45;11.00;;;2.50;;
25045;SDS011;13044;49.304;12.840;2023-02-01T12:08:25;11.02;;;2.38;;
25045;SDS011;13044;49.304;12.840;2023-02-01T12:17:50;9.38;;;2.47;;
25045;SDS011;13044;49.304;12.840;2023-02-01T12:30:18;8.85;;;2.10;;
25045;SDS011;13044;49.304;12.840;2023-02-01T12:50:06;11.63;;;2.28;;
25045;SDS011;13044;49.304;12.840;2023-02-01T12:52:52;6.57;;;2.35;;
25045;SDS011;13044;49.304;12.840;2023-02-01T13:00:40;8.30;;;2.70;;
25045;SDS011;13044;49.304;12.840;2023-02-01T13:06:07;10.88;;;3.22;;
25045;SDS011;13044;49.304;12.840;2023-02-01T13:09:04;7.78;;;2.72;;
25045;SDS011;13044;49.304;12.840;2023-02-01T13:11:57;6.13;;;2.30;;
25045;SDS011;13044;49.304;12.840;2023-02-01T13:14:42;5.60;;;2.15;;
25045;SDS011;13044;49.304;12.840;2023-02-01T13:17:23;8.63;;;2.53;;
25045;SDS011;13044;49.304;12.840;2023-02-01T13:20:13;6.85;;;2.50;;
25045;SDS011;13044;49.304;12.840;2023-02-01T13:23:33;9.48;;;2.92;;
25045;SDS011;13044;49.304;12.840;2023-02-01T13:26:04;14.65;;;3.88;;
25045;SDS011;13044;49.304;12.840;2023-02-01T13:28:34;11.15;;;3.78;;
25045;SDS011;13044;49.304;12.840;2023-02-01T13:42:59;8.68;;;3.55;;
25045;SDS011;13044;49.304;12.840;2023-02-01T13:45:34;13.65;;;3.97;;
25045;SDS011;13044;49.304;12.840;2023-02-01T13:48:17;11.50;;;4.18;;
25045;SDS011;13044;49.304;12.840;2023-02-01T13:50:59;14.30;;;3.30;;
25045;SDS011;13044;49.304;12.840;2023-02-01T13:53:28;9.50;;;3.28;;
25045;SDS011;13044;49.304;12.840;2023-02-01T13:56:03;7.97;;;2.75;;
25045;SDS011;13044;49.304;12.840;2023-02-01T13:58:43;7.78;;;2.53;;
25045;SDS011;13044;49.304;12.840;2023-02-01T14:03:52;13.65;;;4.22;;
25045;SDS011;13044;49.304;12.840;2023-02-01T14:11:47;10.88;;;3.85;;
25045;SDS011;13044;49.304;12.840;2023-02-01T14:21:53;14.20;;;3.67;;
25045;SDS011;13044;49.304;12.840;2023-02-01T14:24:31;13.32;;;2.92;;
25045;SDS011;13044;49.304;12.840;2023-02-01T14:27:01;14.25;;;3.83;;
25045;SDS011;13044;49.304;12.840;2023-02-01T14:29:44;9.10;;;3.38;;
25045;SDS011;13044;49.304;12.840;2023-02-01T14:32:24;10.70;;;3.17;;
25045;SDS011;13044;49.304;12.840;2023-02-01T14:34:58;11.18;;;3.47;;
25045;SDS011;13044;49.304;12.840;2023-02-01T14:37:31;7.78;;;2.75;;
25045;SDS011;13044;49.304;12.840;2023-02-01T14:42:53;14.32;;;3.90;;
25045;SDS011;13044;49.304;12.840;2023-02-01T14:47:54;11.75;;;3.40;;
25045;SDS011;13044;49.304;12.840;2023-02-01T14:53:05;13.40;;;4.03;;
25045;SDS011;13044;49.304;12.840;2023-02-01T15:12:04;10.63;;;4.15;;
25045;SDS011;13044;49.304;12.840;2023-02-01T15:17:29;9.25;;;3.30;;
25045;SDS011;13044;49.304;12.840;2023-02-01T15:20:11;7.72;;;2.60;;
25045;SDS011;13044;49.304;12.840;2023-02-01T15:22:52;10.30;;;4.13;;
25045;SDS011;13044;49.304;12.840;2023-02-01T15:25:37;11.43;;;5.10;;
25045;SDS011;13044;49.304;12.840;2023-02-01T15:28:05;18.05;;;5.18;;
25045;SDS011;13044;49.304;12.840;2023-02-01T15:30:39;15.32;;;4.03;;
25045;SDS011;13044;49.304;12.840;2023-02-01T15:33:07;14.88;;;3.63;;
25045;SDS011;13044;49.304;12.840;2023-02-01T15:40:56;10.98;;;3.33;;
25045;SDS011;13044;49.304;12.840;2023-02-01T15:43:27;11.13;;;2.95;;
25045;SDS011;13044;49.304;12.840;2023-02-01T15:46:00;13.10;;;4.70;;
25045;SDS011;13044;49.304;12.840;2023-02-01T15:48:37;16.77;;;6.68;;
25045;SDS011;13044;49.304;12.840;2023-02-01T15:51:13;13.73;;;5.63;;
25045;SDS011;13044;49.304;12.840;2023-02-01T15:53:46;10.65;;;3.40;;
25045;SDS011;13044;49.304;12.840;2023-02-01T15:56:23;15.80;;;4.32;;
25045;SDS011;13044;49.304;12.840;2023-02-01T15:58:54;17.67;;;5.65;;
25045;SDS011;13044;49.304;12.840;2023-02-01T16:01:25;8.20;;;3.50;;
25045;SDS011;13044;49.304;12.840;2023-02-01T16:07:02;13.80;;;4.40;;
25045;SDS011;13044;49.304;12.840;2023-02-01T16:09:57;11.63;;;2.70;;
25045;SDS011;13044;49.304;12.840;2023-02-01T16:12:34;33.63;;;10.18;;
25045;SDS011;13044;49.304;12.840;2023-02-01T16:15:13;12.93;;;4.30;;
25045;SDS011;13044;49.304;12.840;2023-02-01T16:17:40;14.02;;;3.78;;
25045;SDS011;13044;49.304;12.840;2023-02-01T16:20:08;14.95;;;4.10;;
25045;SDS011;13044;49.304;12.840;2023-02-01T16:22:36;18.20;;;7.18;;
25045;SDS011;13044;49.304;12.840;2023-02-01T16:25:03;11.98;;;3.53;;
25045;SDS011;13044;49.304;12.840;2023-02-01T16:27:30;16.80;;;5.75;;
25045;SDS011;13044;49.304;12.840;2023-02-01T16:29:57;16.25;;;4.47;;
25045;SDS011;13044;49.304;12.840;2023-02-01T16:32:23;11.88;;;3.75;;
25045;SDS011;13044;49.304;12.840;2023-02-01T16:34:52;12.30;;;3.83;;
25045;SDS011;13044;49.304;12.840;2023-02-01T16:37:20;21.17;;;4.40;;
25045;SDS011;13044;49.304;12.840;2023-02-01T16:39:49;17.80;;;4.13;;
25045;SDS011;13044;49.304;12.840;2023-02-01T16:42:16;12.60;;;3.25;;
25045;SDS011;13044;49.304;12.840;2023-02-01T16:44:43;13.25;;;3.30;;
25045;SDS011;13044;49.304;12.840;2023-02-01T16:47:14;12.20;;;3.42;;
25045;SDS011;13044;49.304;12.840;2023-02-01T16:49:48;16.48;;;3.28;;
25045;SDS011;13044;49.304;12.840;2023-02-01T16:52:20;13.98;;;3.83;;
25045;SDS011;13044;49.304;12.840;2023-02-01T16:54:49;19.42;;;7.47;;
25045;SDS011;13044;49.304;12.840;2023-02-01T16:57:17;20.88;;;7.00;;
25045;SDS011;13044;49.304;12.840;2023-02-01T16:59:48;15.20;;;5.45;;
25045;SDS011;13044;49.304;12.840;2023-02-01T17:02:16;12.88;;;3.67;;
25045;SDS011;13044;49.304;12.840;2023-02-01T17:04:48;15.88;;;3.25;;
25045;SDS011;13044;49.304;12.840;2023-02-01T17:07:15;14.43;;;3.15;;
25045;SDS011;13044;49.304;12.840;2023-02-01T17:09:45;11.63;;;3.50;;
25045;SDS011;13044;49.304;12.840;2023-02-01T17:12:22;14.40;;;3.95;;
25045;SDS011;13044;49.304;12.840;2023-02-01T17:14:56;20.27;;;4.32;;
25045;SDS011;13044;49.304;12.840;2023-02-01T17:17:32;16.45;;;3.40;;
25045;SDS011;13044;49.304;12.840;2023-02-01T17:20:05;16.02;;;3.33;;
25045;SDS011;13044;49.304;12.840;2023-02-01T17:22:33;15.65;;;4.60;;
25045;SDS011;13044;49.304;12.840;2023-02-01T17:25:00;12.93;;;4.22;;
25045;SDS011;13044;49.304;12.840;2023-02-01T17:27:27;21.02;;;3.95;;
25045;SDS011;13044;49.304;12.840;2023-02-01T17:29:55;12.23;;;3.35;;
25045;SDS011;13044;49.304;12.840;2023-02-01T17:32:22;15.32;;;3.45;;
25045;SDS011;13044;49.304;12.840;2023-02-01T17:34:51;16.70;;;3.63;;
25045;SDS011;13044;49.304;12.840;2023-02-01T17:37:26;10.85;;;2.95;;
25045;SDS011;13044;49.304;12.840;2023-02-01T17:39:56;10.05;;;3.33;;
25045;SDS011;13044;49.304;12.840;2023-02-01T17:42:23;14.07;;;3.28;;
25045;SDS011;13044;49.304;12.840;2023-02-01T17:44:55;14.57;;;3.35;;
25045;SDS011;13044;49.304;12.840;2023-02-01T17:47:25;17.33;;;3.17;;
25045;SDS011;13044;49.304;12.840;2023-02-01T17:49:52;23.75;;;6.65;;
25045;SDS011;13044;49.304;12.840;2023-02-01T17:52:22;13.75;;;3.10;;
25045;SDS011;13044;49.304;12.840;2023-02-01T17:54:51;19.48;;;4.20;;
25045;SDS011;13044;49.304;12.840;2023-02-01T17:57:19;16.30;;;3.80;;